Time;durP1;ratioP1;P1;durP2;ratioP2;P2;SDS_P1;SDS_P2;PMS_P1;PMS_P2;Temp;Humidity;BMP_temperature;BMP_pressure;BME280_temperature;BME280_humidity;BME280_pressure;Samples;Min_cycle;Max_cycle;Signal;HPM_P1;HPM_P2
2023/01/11 00:00:30;;;;;;;11.18;4.40;;;;;;;;;;6222826;23;20004;-90
2023/01/11 00:03:00;;;;;;;11.68;4.13;;;;;;;;;;6222796;23;20023;-88
2023/01/11 00:05:29;;;;;;;9.10;3.85;;;;;;;;;;6218948;23;20418;-90
2023/01/11 00:07:55;;;;;;;7.72;3.60;;;;;;;;;;6224196;23;20090;-91
2023/01/11 00:10:21;;;;;;;13.10;6.68;;;;;;;;;;6224781;23;20019;-90
2023/01/11 00:13:00;;;;;;;9.98;4.05;;;;;;;;;;6226116;23;20024;-93
2023/01/11 00:15:26;;;;;;;8.60;3.65;;;;;;;;;;6223998;23;20462;-89
2023/01/11 00:17:52;;;;;;;8.25;4.32;;;;;;;;;;6223723;23;20487;-90
2023/01/11 00:20:20;;;;;;;10.82;3.42;;;;;;;;;;6224269;23;20098;-90
2023/01/11 00:22:46;;;;;;;13.40;5.72;;;;;;;;;;6223535;23;20004;-88
2023/01/11 00:25:12;;;;;;;12.73;5.80;;;;;;;;;;6223819;23;20015;-90
2023/01/11 00:27:38;;;;;;;11.65;5.28;;;;;;;;;;6222700;23;20016;-90
2023/01/11 00:30:08;;;;;;;9.15;3.25;;;;;;;;;;6222846;23;20019;-88
2023/01/11 00:32:34;;;;;;;6.32;3.08;;;;;;;;;;6223804;23;20015;-90
2023/01/11 00:35:02;;;;;;;13.27;5.53;;;;;;;;;;6222999;23;20008;-90
2023/01/11 00:37:28;;;;;;;9.20;4.60;;;;;;;;;;6223164;23;20008;-90
2023/01/11 00:39:54;;;;;;;8.68;4.32;;;;;;;;;;6223183;23;20030;-90
2023/01/11 00:47:56;;;;;;;7.68;4.20;;;;;;;;;;6249864;23;20035;-90
2023/01/11 00:50:22;;;;;;;8.50;4.00;;;;;;;;;;6222656;23;20031;-91
2023/01/11 00:52:48;;;;;;;12.63;5.13;;;;;;;;;;6222287;23;20436;-90
2023/01/11 00:55:14;;;;;;;8.25;4.25;;;;;;;;;;6222733;23;20004;-90
2023/01/11 00:57:40;;;;;;;9.23;4.80;;;;;;;;;;6221929;23;20004;-89
2023/01/11 01:00:07;;;;;;;8.90;4.30;;;;;;;;;;6221935;23;20007;-88
2023/01/11 01:02:33;;;;;;;10.95;4.70;;;;;;;;;;6222526;23;20004;-90
2023/01/11 01:04:59;;;;;;;7.93;4.40;;;;;;;;;;6222821;23;20429;-91
2023/01/11 01:07:28;;;;;;;10.18;5.03;;;;;;;;;;6221260;23;20007;-89
2023/01/11 01:09:54;;;;;;;10.77;4.65;;;;;;;;;;6215316;23;20027;-89
2023/01/11 01:15:05;;;;;;;10.27;4.28;;;;;;;;;;6249084;23;20341;-89
2023/01/11 01:17:31;;;;;;;9.63;4.45;;;;;;;;;;6222535;23;20000;-90
2023/01/11 01:20:00;;;;;;;8.18;3.70;;;;;;;;;;6222563;23;20087;-93
2023/01/11 01:22:27;;;;;;;7.38;3.75;;;;;;;;;;6224634;23;20004;-91
2023/01/11 01:24:56;;;;;;;9.90;3.70;;;;;;;;;;6225528;23;20008;-93
2023/01/11 01:27:23;;;;;;;10.90;3.10;;;;;;;;;;6224366;23;20015;-91
2023/01/11 01:29:49;;;;;;;7.85;3.65;;;;;;;;;;6222320;23;20066;-91
2023/01/11 01:32:15;;;;;;;9.32;3.88;;;;;;;;;;6222758;23;20038;-91
2023/01/11 01:34:44;;;;;;;18.10;8.00;;;;;;;;;;6223130;23;20008;-89
2023/01/11 01:37:11;;;;;;;17.95;7.13;;;;;;;;;;6222208;23;20000;-91
2023/01/11 01:39:43;;;;;;;21.77;9.15;;;;;;;;;;6221886;23;20014;-91
2023/01/11 01:42:13;;;;;;;11.68;5.28;;;;;;;;;;6220445;23;20012;-91
2023/01/11 01:44:53;;;;;;;14.00;5.90;;;;;;;;;;6220560;23;20035;-91
2023/01/11 01:47:41;;;;;;;13.40;5.93;;;;;;;;;;6220084;23;20004;-91
2023/01/11 01:50:19;;;;;;;9.85;4.60;;;;;;;;;;6220349;23;20087;-90
2023/01/11 01:52:48;;;;;;;15.20;5.88;;;;;;;;;;6220681;23;20008;-90
2023/01/11 01:55:20;;;;;;;17.02;6.15;;;;;;;;;;6220650;23;20007;-91
2023/01/11 01:57:46;;;;;;;16.55;6.13;;;;;;;;;;6220831;23;20241;-91
2023/01/11 02:00:13;;;;;;;14.23;5.40;;;;;;;;;;6222149;23;20000;-94
2023/01/11 02:02:40;;;;;;;9.98;3.72;;;;;;;;;;6236191;23;20015;-90
2023/01/11 02:05:09;;;;;;;7.15;2.30;;;;;;;;;;6232849;23;20008;-89
2023/01/11 02:07:37;;;;;;;6.07;1.95;;;;;;;;;;6237520;23;20062;-90
2023/01/11 02:10:06;;;;;;;8.02;2.33;;;;;;;;;;6220481;23;20345;-87
2023/01/11 02:12:55;;;;;;;5.88;2.25;;;;;;;;;;6221152;23;20095;-91
2023/01/11 02:15:22;;;;;;;7.00;2.10;;;;;;;;;;6221090;23;20071;-91
2023/01/11 02:17:48;;;;;;;5.65;1.88;;;;;;;;;;6221333;23;20008;-91
2023/01/11 02:20:23;;;;;;;4.75;1.75;;;;;;;;;;6223537;23;20004;-91
2023/01/11 02:23:08;;;;;;;3.65;1.80;;;;;;;;;;6222886;23;20009;-90
2023/01/11 02:25:52;;;;;;;4.97;1.98;;;;;;;;;;6222549;23;20031;-91
2023/01/11 02:28:26;;;;;;;6.25;2.05;;;;;;;;;;6222673;23;20031;-90
2023/01/11 02:31:11;;;;;;;8.18;2.05;;;;;;;;;;6222837;23;20007;-91
2023/01/11 02:34:00;;;;;;;6.93;2.03;;;;;;;;;;6222305;23;20067;-90
2023/01/11 02:36:47;;;;;;;6.45;2.42;;;;;;;;;;6217666;23;20165;-91
2023/01/11 02:39:23;;;;;;;4.35;2.05;;;;;;;;;;6222214;23;20018;-91
2023/01/11 02:45:02;;;;;;;5.82;2.28;;;;;;;;;;6250233;23;20070;-91
2023/01/11 02:47:31;;;;;;;4.45;1.77;;;;;;;;;;6222077;23;20000;-90
2023/01/11 02:50:18;;;;;;;5.57;1.92;;;;;;;;;;6222898;23;20016;-91
2023/01/11 02:52:49;;;;;;;4.97;1.83;;;;;;;;;;6211324;23;20004;-90
2023/01/11 02:55:18;;;;;;;4.18;1.70;;;;;;;;;;6222219;23;20004;-91
2023/01/11 02:57:44;;;;;;;4.68;2.15;;;;;;;;;;6222634;23;20008;-91
2023/01/11 03:00:11;;;;;;;5.90;1.90;;;;;;;;;;6222980;23;20004;-91
2023/01/11 03:02:38;;;;;;;5.00;2.05;;;;;;;;;;6197664;23;20004;-91
2023/01/11 03:05:10;;;;;;;3.13;1.80;;;;;;;;;;6222505;23;20484;-91
2023/01/11 03:08:00;;;;;;;5.63;1.75;;;;;;;;;;6222849;23;20004;-91
2023/01/11 03:10:35;;;;;;;4.47;1.67;;;;;;;;;;6223740;23;20251;-92
2023/01/11 03:13:08;;;;;;;4.97;2.03;;;;;;;;;;6222504;23;20028;-90
2023/01/11 03:15:49;;;;;;;5.60;2.03;;;;;;;;;;6223144;23;20008;-91
2023/01/11 03:18:34;;;;;;;5.88;2.00;;;;;;;;;;6221529;23;20008;-90
2023/01/11 03:21:20;;;;;;;3.78;1.85;;;;;;;;;;6222634;23;20007;-90
2023/01/11 03:23:52;;;;;;;6.40;2.28;;;;;;;;;;6221644;23;20015;-91
2023/01/11 03:26:37;;;;;;;6.28;1.70;;;;;;;;;;6228381;23;20015;-91
2023/01/11 03:29:09;;;;;;;6.40;1.65;;;;;;;;;;6229546;23;20026;-91
2023/01/11 03:31:35;;;;;;;7.05;2.05;;;;;;;;;;6223300;23;20050;-90
2023/01/11 03:34:15;;;;;;;6.10;1.88;;;;;;;;;;6221949;23;20087;-91
2023/01/11 03:36:44;;;;;;;6.82;2.00;;;;;;;;;;6222910;23;20008;-88
2023/01/11 03:39:13;;;;;;;5.35;2.20;;;;;;;;;;6222138;23;20057;-91
2023/01/11 03:41:41;;;;;;;5.57;2.08;;;;;;;;;;6222104;23;20058;-90
2023/01/11 03:44:08;;;;;;;5.88;2.22;;;;;;;;;;6230242;23;20082;-91
2023/01/11 03:46:37;;;;;;;6.45;1.90;;;;;;;;;;6236483;23;20000;-91
2023/01/11 03:49:03;;;;;;;5.20;2.28;;;;;;;;;;6233398;23;20035;-91
2023/01/11 03:51:32;;;;;;;8.50;2.25;;;;;;;;;;6221554;23;20032;-91
2023/01/11 03:54:03;;;;;;;6.10;2.03;;;;;;;;;;6221873;23;20059;-90
2023/01/11 03:56:42;;;;;;;6.65;1.90;;;;;;;;;;6221895;23;20027;-90
2023/01/11 03:59:08;;;;;;;5.20;2.35;;;;;;;;;;6227646;23;20039;-91
2023/01/11 04:01:34;;;;;;;4.72;2.03;;;;;;;;;;6222245;23;20004;-90
2023/01/11 04:04:00;;;;;;;6.70;2.33;;;;;;;;;;6221973;23;20015;-91
2023/01/11 04:06:32;;;;;;;4.97;2.58;;;;;;;;;;6221470;23;20004;-90
2023/01/11 04:08:58;;;;;;;9.48;2.45;;;;;;;;;;6221068;23;20349;-91
2023/01/11 04:11:25;;;;;;;8.15;2.40;;;;;;;;;;6221566;23;20485;-91
2023/01/11 04:13:51;;;;;;;8.60;2.75;;;;;;;;;;6221681;23;20091;-91
2023/01/11 04:16:18;;;;;;;7.38;2.60;;;;;;;;;;6221372;23;20004;-90
2023/01/11 04:18:44;;;;;;;7.80;2.40;;;;;;;;;;6221143;23;20444;-91
2023/01/11 04:21:10;;;;;;;5.72;2.47;;;;;;;;;;6221416;23;20001;-90
2023/01/11 04:23:36;;;;;;;7.05;2.45;;;;;;;;;;6221055;23;20008;-90
2023/01/11 04:26:02;;;;;;;5.75;2.40;;;;;;;;;;6221456;23;19996;-90
2023/01/11 04:28:29;;;;;;;7.75;3.40;;;;;;;;;;6220800;23;20012;-90
2023/01/11 04:30:55;;;;;;;12.82;3.38;;;;;;;;;;6221604;23;20008;-91
2023/01/11 04:33:21;;;;;;;7.55;2.90;;;;;;;;;;6221720;23;20004;-91
2023/01/11 04:35:48;;;;;;;7.72;3.08;;;;;;;;;;6221201;23;20067;-91
2023/01/11 04:38:15;;;;;;;6.85;2.42;;;;;;;;;;6220978;23;20056;-91
2023/01/11 04:40:41;;;;;;;5.63;2.15;;;;;;;;;;6221943;23;20091;-90
2023/01/11 04:43:07;;;;;;;7.28;2.60;;;;;;;;;;6222383;23;20437;-90
2023/01/11 04:45:33;;;;;;;8.40;2.20;;;;;;;;;;6234117;23;20008;-91
2023/01/11 04:47:59;;;;;;;4.60;2.15;;;;;;;;;;6236516;23;20039;-90
2023/01/11 04:50:26;;;;;;;5.93;2.47;;;;;;;;;;6224233;23;20008;-91
2023/01/11 04:52:53;;;;;;;11.30;2.72;;;;;;;;;;6221717;23;20338;-91
2023/01/11 04:55:19;;;;;;;8.40;2.65;;;;;;;;;;6221028;23;20004;-91
2023/01/11 04:57:46;;;;;;;7.65;2.60;;;;;;;;;;6222173;23;20127;-91
2023/01/11 05:00:12;;;;;;;4.45;2.47;;;;;;;;;;6220396;23;20337;-90
2023/01/11 05:02:39;;;;;;;7.40;2.88;;;;;;;;;;6221747;23;20429;-91
2023/01/11 05:05:11;;;;;;;9.43;2.78;;;;;;;;;;6247579;23;20004;-92
2023/01/11 05:07:38;;;;;;;7.78;2.45;;;;;;;;;;6220541;23;20032;-91
2023/01/11 05:10:04;;;;;;;8.95;3.67;;;;;;;;;;6220489;23;20012;-92
2023/01/11 05:12:30;;;;;;;13.23;5.00;;;;;;;;;;6221953;23;20004;-89
2023/01/11 05:14:56;;;;;;;9.93;4.97;;;;;;;;;;6226435;23;20008;-90
2023/01/11 05:17:22;;;;;;;12.05;5.45;;;;;;;;;;6222246;23;20000;-91
2023/01/11 05:19:48;;;;;;;10.38;5.47;;;;;;;;;;6220628;23;20460;-90
2023/01/11 05:22:14;;;;;;;12.02;4.90;;;;;;;;;;6220369;23;20004;-88
2023/01/11 05:24:40;;;;;;;11.40;5.15;;;;;;;;;;6220562;23;20008;-90
2023/01/11 05:27:06;;;;;;;8.27;4.22;;;;;;;;;;6220167;23;20008;-88
2023/01/11 05:29:33;;;;;;;9.43;4.35;;;;;;;;;;6220491;23;20464;-90
2023/01/11 05:31:59;;;;;;;9.80;5.03;;;;;;;;;;6220466;23;20011;-90
2023/01/11 05:34:25;;;;;;;10.60;5.38;;;;;;;;;;6220430;23;20043;-90
2023/01/11 05:36:51;;;;;;;8.75;4.57;;;;;;;;;;6220344;23;20020;-89
2023/01/11 05:39:17;;;;;;;9.60;4.75;;;;;;;;;;6221324;23;20011;-89
2023/01/11 05:41:43;;;;;;;11.65;4.65;;;;;;;;;;6220925;23;20019;-90
2023/01/11 05:46:57;;;;;;;11.05;5.07;;;;;;;;;;6245103;23;20595;-88
2023/01/11 05:49:23;;;;;;;8.75;4.53;;;;;;;;;;6218615;23;20012;-87
2023/01/11 05:51:50;;;;;;;13.02;4.47;;;;;;;;;;6218815;23;20064;-90
2023/01/11 05:54:16;;;;;;;9.98;4.13;;;;;;;;;;6217968;23;20008;-89
2023/01/11 05:56:49;;;;;;;9.98;4.28;;;;;;;;;;6217867;23;20000;-87
2023/01/11 05:59:15;;;;;;;;;;;;;;;;;;6217867;23;20008;-89
2023/01/11 06:01:44;;;;;;;11.80;3.83;;;;;;;;;;6217785;23;19900;-87
2023/01/11 06:04:11;;;;;;;9.65;4.05;;;;;;;;;;6217523;23;20000;-89
2023/01/11 06:06:37;;;;;;;8.27;3.78;;;;;;;;;;6217732;23;20062;-90
2023/01/11 06:09:03;;;;;;;8.18;4.32;;;;;;;;;;6217508;23;20016;-89
2023/01/11 06:11:29;;;;;;;13.23;4.35;;;;;;;;;;6217589;23;20055;-91
2023/01/11 06:13:57;;;;;;;12.52;5.47;;;;;;;;;;6217712;23;20143;-89
2023/01/11 06:16:23;;;;;;;12.55;5.90;;;;;;;;;;6218406;23;20088;-91
2023/01/11 06:18:56;;;;;;;13.25;5.78;;;;;;;;;;6216724;23;20008;-91
2023/01/11 06:21:25;;;;;;;11.68;5.18;;;;;;;;;;6218489;23;20020;-89
2023/01/11 06:23:57;;;;;;;10.98;4.93;;;;;;;;;;6217494;23;20039;-88
2023/01/11 06:26:23;;;;;;;11.73;5.32;;;;;;;;;;6219582;23;20012;-87
2023/01/11 06:28:50;;;;;;;9.98;4.38;;;;;;;;;;6219176;23;20441;-88
2023/01/11 06:31:23;;;;;;;8.43;4.60;;;;;;;;;;6219154;23;20047;-88
2023/01/11 06:33:49;;;;;;;10.33;4.90;;;;;;;;;;6219752;23;20004;-89
2023/01/11 06:45:16;;;;;;;14.40;5.55;;;;;;;;;;6155886;23;20065;-88
2023/01/11 06:47:45;;;;;;;9.15;4.10;;;;;;;;;;6129965;23;20009;-87
2023/01/11 06:50:11;;;;;;;10.95;4.43;;;;;;;;;;6176294;23;20022;-87
2023/01/11 06:52:40;;;;;;;9.20;4.32;;;;;;;;;;6219546;23;20101;-89
2023/01/11 06:55:06;;;;;;;9.82;4.43;;;;;;;;;;6192582;23;20008;-87
2023/01/11 06:57:33;;;;;;;10.73;4.38;;;;;;;;;;6219100;23;20004;-87
2023/01/11 07:00:02;;;;;;;10.55;4.63;;;;;;;;;;6245338;23;20004;-88
2023/01/11 07:02:28;;;;;;;7.55;4.18;;;;;;;;;;6219163;23;20024;-87
2023/01/11 07:04:54;;;;;;;9.70;4.68;;;;;;;;;;6219063;23;20061;-89
2023/01/11 07:07:20;;;;;;;9.18;4.22;;;;;;;;;;6221412;23;20051;-88
2023/01/11 07:09:49;;;;;;;13.45;5.80;;;;;;;;;;6221594;23;20446;-88
2023/01/11 07:12:22;;;;;;;9.38;4.65;;;;;;;;;;6220519;23;20383;-88
2023/01/11 07:14:48;;;;;;;12.25;4.75;;;;;;;;;;6220445;23;20008;-88
2023/01/11 07:17:14;;;;;;;8.82;4.10;;;;;;;;;;6218730;23;20426;-90
2023/01/11 07:19:40;;;;;;;9.57;4.15;;;;;;;;;;6220357;23;20023;-90
2023/01/11 07:22:06;;;;;;;7.72;3.88;;;;;;;;;;6228416;23;20004;-90
2023/01/11 07:24:32;;;;;;;9.90;4.07;;;;;;;;;;6221835;23;20034;-90
2023/01/11 07:27:00;;;;;;;8.43;3.88;;;;;;;;;;6221839;23;20027;-90
2023/01/11 07:29:29;;;;;;;9.82;3.83;;;;;;;;;;6244747;23;20019;-90
2023/01/11 07:32:01;;;;;;;6.80;3.53;;;;;;;;;;6236797;23;20004;-91
2023/01/11 07:34:27;;;;;;;8.65;3.50;;;;;;;;;;6227070;23;20410;-91
2023/01/11 07:36:53;;;;;;;9.25;4.57;;;;;;;;;;6230961;23;20004;-90
2023/01/11 07:39:19;;;;;;;10.48;3.97;;;;;;;;;;6231317;23;20008;-90
2023/01/11 07:44:30;;;;;;;7.65;4.13;;;;;;;;;;6247714;23;20130;-91
2023/01/11 07:46:57;;;;;;;7.38;3.45;;;;;;;;;;6220115;23;20008;-91
2023/01/11 07:49:23;;;;;;;9.23;4.00;;;;;;;;;;6220663;23;20019;-91
2023/01/11 07:51:50;;;;;;;6.53;3.92;;;;;;;;;;6224177;23;20007;-91
2023/01/11 07:54:17;;;;;;;7.65;2.78;;;;;;;;;;6220630;23;20340;-91
2023/01/11 07:56:43;;;;;;;9.35;3.83;;;;;;;;;;6220229;23;20015;-92
2023/01/11 07:59:10;;;;;;;5.63;2.40;;;;;;;;;;6220030;23;20008;-91
2023/01/11 08:01:36;;;;;;;5.13;2.00;;;;;;;;;;6220668;23;20000;-91
2023/01/11 08:04:02;;;;;;;3.92;2.13;;;;;;;;;;6220469;23;20532;-91
2023/01/11 08:06:28;;;;;;;3.53;1.90;;;;;;;;;;6220294;23;20414;-91
2023/01/11 08:08:54;;;;;;;5.43;2.90;;;;;;;;;;6219913;23;20091;-90
2023/01/11 08:16:50;;;;;;;6.47;3.50;;;;;;;;;;6248726;23;20026;-91
2023/01/11 08:19:16;;;;;;;6.05;3.45;;;;;;;;;;6247695;23;20073;-91
2023/01/11 08:21:43;;;;;;;8.43;3.60;;;;;;;;;;6220965;23;20004;-91
2023/01/11 08:24:09;;;;;;;7.35;4.32;;;;;;;;;;6220656;23;20008;-91
2023/01/11 08:26:35;;;;;;;8.80;4.03;;;;;;;;;;6220837;23;20000;-91
2023/01/11 08:29:02;;;;;;;8.10;4.43;;;;;;;;;;6220930;23;20030;-91
2023/01/11 08:31:29;;;;;;;8.15;4.25;;;;;;;;;;6220720;23;20004;-91
2023/01/11 08:33:55;;;;;;;10.73;4.70;;;;;;;;;;6225192;22;20055;-91
2023/01/11 08:36:23;;;;;;;12.55;4.10;;;;;;;;;;6245069;23;20004;-91
2023/01/11 08:38:53;;;;;;;10.07;4.53;;;;;;;;;;6225837;23;19997;-91
2023/01/11 08:41:19;;;;;;;9.73;4.25;;;;;;;;;;6220876;23;20086;-92
2023/01/11 08:43:45;;;;;;;7.18;3.40;;;;;;;;;;6221256;23;20004;-92
2023/01/11 08:46:11;;;;;;;8.30;3.20;;;;;;;;;;6221269;23;20022;-91
2023/01/11 08:48:37;;;;;;;10.50;2.40;;;;;;;;;;6221655;23;20020;-92
2023/01/11 08:51:03;;;;;;;8.30;3.30;;;;;;;;;;6234548;23;20047;-91
2023/01/11 08:53:29;;;;;;;7.10;3.40;;;;;;;;;;6224711;23;20426;-91
2023/01/11 08:55:55;;;;;;;6.85;3.63;;;;;;;;;;6221174;23;20004;-91
2023/01/11 08:58:21;;;;;;;7.28;3.65;;;;;;;;;;6221060;23;20083;-91
2023/01/11 09:00:51;;;;;;;4.88;2.45;;;;;;;;;;6221157;23;20008;-91
2023/01/11 09:03:17;;;;;;;3.58;1.30;;;;;;;;;;6220354;23;20004;-91
2023/01/11 09:05:44;;;;;;;4.68;1.02;;;;;;;;;;6221120;23;20012;-92
2023/01/11 09:08:10;;;;;;;4.28;1.30;;;;;;;;;;6224545;23;20019;-90
2023/01/11 09:10:37;;;;;;;2.58;1.08;;;;;;;;;;6224829;23;20004;-91
2023/01/11 09:13:03;;;;;;;2.15;0.75;;;;;;;;;;6221222;23;20011;-91
2023/01/11 09:15:29;;;;;;;3.83;1.05;;;;;;;;;;6220967;23;20004;-90
2023/01/11 09:17:56;;;;;;;3.63;1.10;;;;;;;;;;6223184;23;20000;-91
2023/01/11 09:20:22;;;;;;;4.72;1.50;;;;;;;;;;6220612;23;20011;-91
2023/01/11 09:22:49;;;;;;;4.43;1.13;;;;;;;;;;6220655;23;20433;-91
2023/01/11 09:25:15;;;;;;;3.65;1.10;;;;;;;;;;6220854;23;20071;-91
2023/01/11 09:27:45;;;;;;;3.35;1.30;;;;;;;;;;6220671;23;20047;-90
2023/01/11 09:30:12;;;;;;;3.50;1.48;;;;;;;;;;6220500;23;20016;-91
2023/01/11 09:32:38;;;;;;;3.75;1.85;;;;;;;;;;6220588;23;20083;-91
2023/01/11 09:35:05;;;;;;;5.03;1.80;;;;;;;;;;6220675;23;20030;-92
2023/01/11 09:37:31;;;;;;;3.97;1.40;;;;;;;;;;6221114;23;20083;-91
2023/01/11 09:40:00;;;;;;;3.15;1.60;;;;;;;;;;6221320;23;20019;-91
2023/01/11 09:42:30;;;;;;;3.45;1.38;;;;;;;;;;6196571;23;20015;-91
2023/01/11 09:45:22;;;;;;;4.10;2.13;;;;;;;;;;6220865;23;20015;-91
2023/01/11 09:47:52;;;;;;;3.78;1.40;;;;;;;;;;6214196;23;20063;-91
2023/01/11 09:50:18;;;;;;;3.20;1.20;;;;;;;;;;6220799;23;20008;-91
2023/01/11 09:52:46;;;;;;;3.92;1.73;;;;;;;;;;6220802;23;20008;-91
2023/01/11 09:55:18;;;;;;;4.40;1.60;;;;;;;;;;6220483;23;20046;-91
2023/01/11 09:57:48;;;;;;;3.38;1.55;;;;;;;;;;6197183;23;20090;-91
2023/01/11 10:00:32;;;;;;;4.05;1.35;;;;;;;;;;6221070;23;20008;-90
2023/01/11 10:03:05;;;;;;;3.58;1.67;;;;;;;;;;6221068;23;20008;-91
2023/01/11 10:05:50;;;;;;;3.77;1.70;;;;;;;;;;6220976;23;20103;-90
2023/01/11 10:08:39;;;;;;;3.33;1.70;;;;;;;;;;6220534;23;20254;-95
2023/01/11 10:11:19;;;;;;;3.72;1.70;;;;;;;;;;6231570;23;20023;-89
2023/01/11 10:13:52;;;;;;;4.30;1.90;;;;;;;;;;6224324;23;20027;-89
2023/01/11 10:16:50;;;;;;;3.28;1.58;;;;;;;;;;6225186;23;20058;-90
2023/01/11 10:19:22;;;;;;;3.42;1.67;;;;;;;;;;6224340;23;20079;-90
2023/01/11 10:22:05;;;;;;;3.60;1.50;;;;;;;;;;6224567;23;20090;-89
2023/01/11 10:24:33;;;;;;;;;;;;;;;;;;6225892;23;20006;-92
2023/01/11 10:27:07;;;;;;;4.00;1.50;;;;;;;;;;6239295;22;19931;-91
2023/01/11 10:38:45;;;;;;;3.35;1.48;;;;;;;;;;6247753;23;20488;-91
2023/01/11 10:41:37;;;;;;;3.00;1.60;;;;;;;;;;6221182;23;20311;-89
2023/01/11 10:44:09;;;;;;;4.13;1.70;;;;;;;;;;6222536;23;20008;-90
2023/01/11 10:46:50;;;;;;;5.97;3.10;;;;;;;;;;6221869;23;20015;-91
2023/01/11 10:49:43;;;;;;;4.22;1.90;;;;;;;;;;6222200;23;20126;-90
2023/01/11 10:52:18;;;;;;;4.30;2.10;;;;;;;;;;6199395;23;20008;-91
2023/01/11 10:54:49;;;;;;;5.00;1.83;;;;;;;;;;6222383;23;20492;-88
2023/01/11 10:57:21;;;;;;;5.32;1.92;;;;;;;;;;6221928;23;20004;-90
2023/01/11 11:00:12;;;;;;;5.05;2.00;;;;;;;;;;6222037;23;20004;-93
2023/01/11 11:02:50;;;;;;;2.85;1.33;;;;;;;;;;6222026;23;20008;-90
2023/01/11 11:05:32;;;;;;;3.85;1.30;;;;;;;;;;6221433;23;20058;-91
2023/01/11 11:08:01;;;;;;;4.47;1.42;;;;;;;;;;6221626;23;20032;-89
2023/01/11 11:10:41;;;;;;;3.13;1.38;;;;;;;;;;6223839;23;20012;-92
2023/01/11 11:13:16;;;;;;;3.28;1.60;;;;;;;;;;6224455;23;20004;-90
2023/01/11 11:15:51;;;;;;;3.97;1.35;;;;;;;;;;6224076;23;20083;-90
2023/01/11 11:18:20;;;;;;;4.05;1.70;;;;;;;;;;6222311;23;20004;-93
2023/01/11 11:20:55;;;;;;;5.40;1.70;;;;;;;;;;6221980;23;20012;-94
2023/01/11 11:23:34;;;;;;;5.05;1.50;;;;;;;;;;6221784;23;20000;-91
2023/01/11 11:26:05;;;;;;;3.40;1.60;;;;;;;;;;6224038;23;20004;-86
2023/01/11 11:28:32;;;;;;;4.80;1.65;;;;;;;;;;6216383;23;20069;-87
2023/01/11 11:30:59;;;;;;;4.22;1.92;;;;;;;;;;6219988;23;20008;-88
2023/01/11 11:33:35;;;;;;;3.72;1.70;;;;;;;;;;6245750;23;20413;-87
2023/01/11 11:36:06;;;;;;;5.05;2.55;;;;;;;;;;6220347;23;20091;-91
2023/01/11 11:38:37;;;;;;;7.00;2.95;;;;;;;;;;6247823;23;20004;-88
2023/01/11 11:41:08;;;;;;;5.70;2.55;;;;;;;;;;6221218;23;20503;-89
2023/01/11 11:43:35;;;;;;;6.18;3.10;;;;;;;;;;6221622;23;20015;-86
2023/01/11 11:46:21;;;;;;;9.20;2.80;;;;;;;;;;6221209;23;20066;-87
2023/01/11 11:49:06;;;;;;;6.05;2.20;;;;;;;;;;6221232;23;20115;-88
2023/01/11 11:51:32;;;;;;;8.93;2.53;;;;;;;;;;6220729;23;20044;-88
2023/01/11 11:53:58;;;;;;;7.05;2.45;;;;;;;;;;6220235;23;20093;-90
2023/01/11 11:56:26;;;;;;;4.03;2.10;;;;;;;;;;6221172;23;20495;-89
2023/01/11 11:58:53;;;;;;;5.22;2.10;;;;;;;;;;6221008;23;20026;-88
2023/01/11 12:01:28;;;;;;;5.88;2.40;;;;;;;;;;6219971;23;20008;-89
2023/01/11 12:03:56;;;;;;;7.63;2.28;;;;;;;;;;6221325;23;20004;-88
2023/01/11 12:06:34;;;;;;;5.28;2.38;;;;;;;;;;6220968;23;20008;-90
2023/01/11 12:09:09;;;;;;;4.28;1.65;;;;;;;;;;6221860;23;20075;-90
2023/01/11 12:11:42;;;;;;;4.82;1.20;;;;;;;;;;6222634;23;20005;-91
2023/01/11 12:14:23;;;;;;;4.00;1.00;;;;;;;;;;6221554;23;20456;-91
2023/01/11 12:16:52;;;;;;;3.33;1.00;;;;;;;;;;6222055;23;20011;-91
2023/01/11 12:19:29;;;;;;;5.65;3.30;;;;;;;;;;6222880;23;20641;-91
2023/01/11 12:22:11;;;;;;;4.80;2.30;;;;;;;;;;6265206;22;20008;-82
2023/01/11 12:24:50;;;;;;;4.68;2.15;;;;;;;;;;6233702;23;20381;-90
2023/01/11 12:27:38;;;;;;;3.97;1.95;;;;;;;;;;6221645;23;20000;-93
2023/01/11 12:30:26;;;;;;;3.40;1.30;;;;;;;;;;6222263;23;20020;-91
2023/01/11 12:32:59;;;;;;;6.68;2.15;;;;;;;;;;6221875;23;20050;-91
2023/01/11 12:35:34;;;;;;;5.28;2.05;;;;;;;;;;6224653;23;20039;-88
2023/01/11 12:38:05;;;;;;;8.00;1.90;;;;;;;;;;6248939;23;20000;-90
2023/01/11 12:40:35;;;;;;;2.90;1.35;;;;;;;;;;6220772;23;20315;-91
2023/01/11 12:55:23;;;;;;;4.38;2.10;;;;;;;;;;6154543;23;20012;-88
2023/01/11 12:58:03;;;;;;;5.47;2.45;;;;;;;;;;6129851;23;20137;-90
2023/01/11 13:00:50;;;;;;;5.22;2.15;;;;;;;;;;6130878;23;20006;-90
2023/01/11 13:03:19;;;;;;;6.00;2.53;;;;;;;;;;6180722;23;20015;-89
2023/01/11 13:06:04;;;;;;;6.78;2.30;;;;;;;;;;6221692;23;20143;-94
2023/01/11 13:08:51;;;;;;;4.63;2.17;;;;;;;;;;6224529;23;20061;-93
2023/01/11 13:11:47;;;;;;;6.95;2.53;;;;;;;;;;6227985;23;20028;-93
2023/01/11 13:14:29;;;;;;;6.07;2.55;;;;;;;;;;6243864;22;20014;-89
2023/01/11 13:17:17;;;;;;;6.35;2.53;;;;;;;;;;6229970;23;20039;-90
2023/01/11 13:23:31;;;;;;;;;;;;;;;;;;;;;
2023/01/11 13:26:19;;;;;;;9.85;2.95;;;;;;;;;;6172628;23;20102;-93
2023/01/11 13:28:54;;;;;;;6.97;2.55;;;;;;;;;;6219929;23;20008;-90
2023/01/11 13:31:30;;;;;;;6.65;3.10;;;;;;;;;;6220027;23;20087;-90
2023/01/11 13:34:06;;;;;;;8.32;3.85;;;;;;;;;;6220645;23;20004;-89
2023/01/11 13:36:51;;;;;;;10.82;5.65;;;;;;;;;;6220451;23;20331;-92
2023/01/11 13:39:29;;;;;;;12.82;4.68;;;;;;;;;;6220580;23;20058;-93
2023/01/11 13:41:57;;;;;;;6.32;3.05;;;;;;;;;;6220844;23;20422;-91
2023/01/11 13:44:26;;;;;;;8.45;3.75;;;;;;;;;;6222225;23;20085;-93
2023/01/11 13:47:18;;;;;;;9.02;3.60;;;;;;;;;;6220876;23;20086;-91
2023/01/11 13:49:44;;;;;;;7.20;2.72;;;;;;;;;;6220997;23;20607;-89
2023/01/11 13:52:24;;;;;;;5.22;2.65;;;;;;;;;;6220495;23;20000;-93
2023/01/11 13:55:13;;;;;;;5.82;2.55;;;;;;;;;;6220108;23;20016;-89
2023/01/11 13:57:46;;;;;;;6.82;3.10;;;;;;;;;;6219320;23;20000;-94
2023/01/11 14:00:50;;;;;;;6.20;2.75;;;;;;;;;;6222301;23;20004;-95
2023/01/11 14:03:27;;;;;;;10.45;3.00;;;;;;;;;;6204392;23;20572;-94
2023/01/11 14:05:59;;;;;;;12.30;3.95;;;;;;;;;;6222174;23;20009;-95
2023/01/11 14:08:45;;;;;;;9.65;4.22;;;;;;;;;;6223053;23;20087;-89
2023/01/11 14:11:40;;;;;;;10.52;4.30;;;;;;;;;;6221805;23;20016;-89
2023/01/11 14:14:34;;;;;;;7.20;3.13;;;;;;;;;;6223122;23;20098;-92
2023/01/11 14:17:03;;;;;;;;;;;;;;;;;;6267765;22;20019;-89
2023/01/11 14:19:48;;;;;;;6.93;3.30;;;;;;;;;;6233402;23;19904;-88
2023/01/11 14:22:37;;;;;;;11.27;3.80;;;;;;;;;;6251353;23;20083;-91
2023/01/11 14:25:09;;;;;;;9.38;4.05;;;;;;;;;;6221494;23;20012;-88
2023/01/11 14:27:57;;;;;;;12.13;4.40;;;;;;;;;;6221907;23;20008;-86
2023/01/11 14:30:30;;;;;;;12.93;5.07;;;;;;;;;;6222326;23;20047;-88
2023/01/11 14:33:12;;;;;;;9.30;4.25;;;;;;;;;;6221312;23;20010;-89
2023/01/11 14:35:44;;;;;;;8.25;3.67;;;;;;;;;;6222907;23;20012;-86
2023/01/11 14:38:11;;;;;;;7.80;3.75;;;;;;;;;;6222419;23;20012;-91
2023/01/11 14:40:56;;;;;;;6.22;3.50;;;;;;;;;;6249170;23;20000;-85
2023/01/11 14:43:48;;;;;;;13.60;5.70;;;;;;;;;;6224991;23;20084;-87
2023/01/11 14:46:18;;;;;;;12.95;6.55;;;;;;;;;;6160514;23;20068;-96
2023/01/11 14:49:29;;;;;;;12.50;6.10;;;;;;;;;;6213161;23;20043;-94
2023/01/11 14:52:15;;;;;;;10.77;5.18;;;;;;;;;;6171868;23;20005;-91
2023/01/11 14:54:44;;;;;;;9.98;5.13;;;;;;;;;;6221622;23;20005;-95
2023/01/11 14:57:47;;;;;;;11.27;6.78;;;;;;;;;;6223767;23;20779;-91
2023/01/11 15:00:19;;;;;;;10.48;5.20;;;;;;;;;;6223682;23;20008;-88
2023/01/11 15:02:51;;;;;;;9.43;4.00;;;;;;;;;;6223653;23;20016;-90
2023/01/11 15:05:30;;;;;;;11.52;4.38;;;;;;;;;;6222808;23;20083;-87
2023/01/11 15:08:31;;;;;;;10.75;5.25;;;;;;;;;;6224473;23;20046;-87
2023/01/11 15:11:01;;;;;;;;;;;;;;;;;;6223876;23;20004;-88
2023/01/11 15:13:34;;;;;;;12.63;6.68;;;;;;;;;;6224051;23;19922;-88
2023/01/11 15:19:28;;;;;;;10.73;4.20;;;;;;;;;;6225122;23;20034;-88
2023/01/11 15:21:55;;;;;;;6.15;3.65;;;;;;;;;;6221305;23;20426;-89
2023/01/11 15:24:26;;;;;;;7.70;3.55;;;;;;;;;;6249046;23;20106;-88
2023/01/11 15:38:02;;;;;;;7.38;2.92;;;;;;;;;;6279740;22;20042;-94
2023/01/11 15:40:30;;;;;;;6.57;2.83;;;;;;;;;;6253676;22;20010;-93
2023/01/11 15:43:15;;;;;;;7.13;2.53;;;;;;;;;;6250525;22;20007;-87
2023/01/11 15:49:03;;;;;;;6.47;2.58;;;;;;;;;;6282189;22;20034;-88
2023/01/11 15:51:32;;;;;;;5.80;2.42;;;;;;;;;;6250700;22;20141;-93
2023/01/11 15:54:04;;;;;;;10.27;2.88;;;;;;;;;;6252794;22;20012;-87
2023/01/11 15:56:36;;;;;;;6.47;2.33;;;;;;;;;;6251417;22;20290;-88
2023/01/11 15:59:18;;;;;;;6.47;2.65;;;;;;;;;;6251757;22;20000;-88
2023/01/11 16:01:47;;;;;;;6.75;2.42;;;;;;;;;;6256798;22;20027;-89
2023/01/11 16:04:43;;;;;;;6.32;3.00;;;;;;;;;;6260543;22;20043;-88
2023/01/11 16:07:17;;;;;;;7.43;3.08;;;;;;;;;;6225210;22;20003;-87
2023/01/11 16:10:06;;;;;;;8.77;3.58;;;;;;;;;;6262624;22;20007;-87
2023/01/11 16:12:55;;;;;;;7.95;3.58;;;;;;;;;;6297827;22;20008;-88
2023/01/11 16:15:39;;;;;;;8.85;4.95;;;;;;;;;;6260456;22;20083;-92
2023/01/11 16:21:35;;;;;;;9.75;4.70;;;;;;;;;;6160871;23;20020;-87
2023/01/11 16:24:06;;;;;;;11.52;7.10;;;;;;;;;;6131693;23;20073;-85
2023/01/11 16:26:34;;;;;;;11.43;6.32;;;;;;;;;;6140583;23;20017;-90
2023/01/11 16:29:34;;;;;;;12.95;7.65;;;;;;;;;;6177512;22;20008;-91